Amami Airport
RJKA : now visible

Airfield :











YOU CAN JOIN US ON...

 
LOGIN :

Register | Disclaimer

   EN    FR    IT 

 









Legend :    VFR   Marginal VFR   IFR   Intensive IFR   Very Intensive IFR
Visi :
Ceiling :
>= 8 km
>= 3000ft
5 to 8 km
1000 to 3000 ft
1500m to 5 km
500 to 1000 ft
800 to 1500m
200 to 500 ft
< 800m
< 200 ft
Symbols :   Thunderstorms  Fog  Heavy snow  Heavy precipitations  Wind > 20 kt






- Airport Elevation : 27 ft
- IATA code : ASJ


RJKA - Amami

CURRENT METAR :
  • 310400Z 23010KT 9999 FEW020 SCT110 BKN140 26/24 Q1010

EXPIRED METARs :
  • 310300Z 24009KT 9999 FEW020 BKN100 BKN150 26/24 Q1010
  • 310218Z 22012KT 5000 -SHRA FEW008 SCT015 BKN025 25/25 Q1011 RMK 1CU008 3CU015 5CU025 A2986
  • 310214Z 22011KT 4000 R03/0900VP2000U -SHRA FEW002 BKN015 BKN030 25/25 Q1011 RMK 1ST002 5CU015 7CU030 A2986
  • 310200Z 23012KT 1500 R03/1400VP2000D +SHRA FEW010 BKN025 BKN040 25/25 Q1010
  • 310142Z 22012KT 3000 SHRA FEW015 BKN020 BKN035 25/25 Q1010 RMK 1CU015 5CU020 7CU035 A2985
  • 310100Z 23014KT 8000 BR FEW005 SCT025 BKN120 25/25 Q1010

TAF N/A
RJJJ FIR / Asia



MET'MAP, your aeronautical weather chart ! - Copyright ORBIFLY December 2007 - Disclaimer

ORBIFLY MET'MAP TEAM :

Programming & Development : Alexandra Zaïnal
Concept & original design : Baudouin d'Aumeries
Assistance for programming : Marc-Olivier Méhu
Technical & hardware support : Manuel Goepfert

Contact : metmap@orbifly.com




SOURCES & CREDITS :

   NOAA       Earth
Advisory